Thurles, Ireland
Current Conditions -  °F | °C
As of 8:30 PM on Wednesday 22 Oct 2014 (Local Time) from EIWF Reporting Station
Broken Clouds Broken Clouds  
Wind Chill: 54°   Ceiling: 2600
Heat Index: 54°   Visibility: 6mi
Dew Point: 46°   Wind: 10mph
Humidity: 77%   Direction: 270°W
Pressure: 30.15"   Gusts: NA
Location:  52.68°N, 7.48°W
Report Text: EIWF 221930Z 27009KT 210V320 9999 BKN026 12/08 Q1021
Loading
Personal Weather Stations






























Interactive Weather Map
Tropical Storm Tracking
New forecast layout! Learn more

10-Day Weather Forecast

Advertisements
Track Severe Weather on mobile